Time;durP1;ratioP1;P1;durP2;ratioP2;P2;SDS_P1;SDS_P2;PMS_P1;PMS_P2;Temp;Humidity;BMP_temperature;BMP_pressure;BME280_temperature;BME280_humidity;BME280_pressure;Samples;Min_cycle;Max_cycle;Signal;HPM_P1;HPM_P2
2021/04/08 00:01:16;;;;;;;10.02;4.10;;;13.80;51.20;;;;;;4882478;29;20705;-68
2021/04/08 00:03:42;;;;;;;8.50;3.88;;;14.00;51.30;;;;;;4865836;29;20045;-68
2021/04/08 00:06:08;;;;;;;11.02;4.28;;;14.20;51.50;;;;;;4865983;29;20485;-68
2021/04/08 00:08:34;;;;;;;10.85;4.45;;;14.30;50.80;;;;;;4883231;29;20045;-68
2021/04/08 00:11:00;;;;;;;9.50;4.20;;;14.50;50.40;;;;;;4882386;29;20403;-68
2021/04/08 00:13:25;;;;;;;11.85;4.53;;;14.60;50.20;;;;;;4882629;29;20048;-68
2021/04/08 00:15:51;;;;;;;11.00;4.70;;;14.70;50.00;;;;;;4868451;29;20051;-68
2021/04/08 00:18:17;;;;;;;9.50;3.95;;;14.80;49.80;;;;;;4887036;29;20052;-68
2021/04/08 00:20:44;;;;;;;7.57;3.50;;;14.80;49.50;;;;;;4869203;29;20055;-68
2021/04/08 00:23:10;;;;;;;8.55;3.50;;;14.80;48.80;;;;;;4886442;29;20048;-68
2021/04/08 00:25:37;;;;;;;9.45;3.55;;;14.50;49.20;;;;;;4854963;29;20056;-68
2021/04/08 00:28:06;;;;;;;7.75;3.67;;;14.50;49.80;;;;;;4885144;29;20565;-68
2021/04/08 00:30:45;;;;;;;7.35;3.95;;;14.50;49.80;;;;;;4885892;29;20052;-68
2021/04/08 00:33:15;;;;;;;11.65;4.30;;;14.60;49.70;;;;;;4885323;29;20604;-68
2021/04/08 00:35:42;;;;;;;8.18;3.33;;;14.60;49.10;;;;;;4886556;29;20064;-67
2021/04/08 00:38:08;;;;;;;7.07;3.25;;;14.70;49.20;;;;;;4853221;29;20450;-67
2021/04/08 00:40:35;;;;;;;7.78;2.85;;;14.70;49.30;;;;;;4886119;29;20095;-68
2021/04/08 00:43:01;;;;;;;6.45;3.50;;;14.80;47.90;;;;;;4886916;29;20036;-68
2021/04/08 00:45:27;;;;;;;7.53;2.92;;;14.70;48.70;;;;;;4885947;29;20044;-68
2021/04/08 00:47:53;;;;;;;6.32;3.03;;;14.80;49.10;;;;;;4869334;29;20040;-67
2021/04/08 00:50:20;;;;;;;9.52;3.53;;;14.80;48.80;;;;;;4868566;29;20052;-67
2021/04/08 00:52:54;;;;;;;7.38;3.40;;;14.80;49.10;;;;;;4885589;29;20725;-67
2021/04/08 00:55:22;;;;;;;6.45;3.22;;;14.80;49.20;;;;;;4885682;29;20052;-67
2021/04/08 00:57:49;;;;;;;8.00;3.50;;;14.90;49.00;;;;;;4885151;29;20123;-67
2021/04/08 01:00:15;;;;;;;6.85;3.20;;;14.90;48.80;;;;;;4886163;29;20092;-67
2021/04/08 01:02:41;;;;;;;8.35;3.15;;;14.90;48.60;;;;;;4886828;29;20068;-67
2021/04/08 01:05:08;;;;;;;9.10;2.97;;;14.90;48.70;;;;;;4867419;29;20541;-66
2021/04/08 01:07:36;;;;;;;12.15;3.88;;;14.90;48.80;;;;;;4868704;29;20060;-67
2021/04/08 01:10:04;;;;;;;7.90;3.10;;;15.00;48.80;;;;;;4884935;29;20040;-66
2021/04/08 01:12:30;;;;;;;8.32;3.03;;;14.90;48.70;;;;;;4885146;29;20844;-67
2021/04/08 01:14:56;;;;;;;7.28;3.17;;;14.90;48.60;;;;;;4868431;29;20037;-67
2021/04/08 01:17:34;;;;;;;8.30;3.10;;;14.90;48.70;;;;;;4868039;29;20052;-67
2021/04/08 01:20:09;;;;;;;9.52;3.13;;;14.90;48.60;;;;;;4886063;29;20496;-67
2021/04/08 01:22:53;;;;;;;8.10;3.40;;;14.90;48.70;;;;;;4867579;29;20055;-67
2021/04/08 01:25:59;;;;;;;7.68;2.60;;;14.90;48.70;;;;;;4885293;29;20118;-67
2021/04/08 01:28:33;;;;;;;8.45;2.72;;;14.80;48.70;;;;;;4883923;29;20081;-67
2021/04/08 01:31:01;;;;;;;6.95;2.83;;;14.70;48.50;;;;;;4886635;29;20033;-67
2021/04/08 01:33:46;;;;;;;6.57;2.40;;;14.70;48.50;;;;;;4884294;29;20064;-67
2021/04/08 01:36:22;;;;;;;6.22;2.85;;;14.50;48.00;;;;;;4885579;29;20496;-67
2021/04/08 01:38:58;;;;;;;5.57;2.17;;;14.40;48.60;;;;;;4885415;29;20489;-67
2021/04/08 01:41:25;;;;;;;6.55;2.63;;;14.20;47.50;;;;;;4885144;29;20032;-67
2021/04/08 01:43:56;;;;;;;6.18;2.83;;;14.00;48.90;;;;;;4852823;29;20039;-67
2021/04/08 01:46:25;;;;;;;5.97;2.38;;;14.10;49.60;;;;;;4885078;29;20044;-67
2021/04/08 01:48:54;;;;;;;6.05;2.40;;;14.20;49.10;;;;;;4884107;29;20070;-66
2021/04/08 01:51:24;;;;;;;7.78;2.58;;;14.20;48.90;;;;;;4884669;29;20131;-67
2021/04/08 01:53:54;;;;;;;5.65;2.65;;;14.30;48.80;;;;;;4883468;29;20066;-67
2021/04/08 01:56:23;;;;;;;7.22;2.70;;;14.40;48.70;;;;;;4884936;29;20056;-67
2021/04/08 01:58:49;;;;;;;9.20;3.33;;;14.50;48.50;;;;;;4885031;29;20041;-67
2021/04/08 02:01:20;;;;;;;5.70;2.60;;;14.60;48.20;;;;;;4883800;29;20033;-67
2021/04/08 02:03:48;;;;;;;9.40;2.33;;;14.70;48.10;;;;;;4884699;29;20043;-67
2021/04/08 02:06:15;;;;;;;6.97;2.28;;;14.60;48.10;;;;;;4884275;29;20124;-67
2021/04/08 02:08:45;;;;;;;6.20;2.20;;;14.60;48.10;;;;;;4885196;29;20485;-66
2021/04/08 02:11:12;;;;;;;7.93;2.53;;;14.60;48.10;;;;;;4869610;29;20068;-67
2021/04/08 02:13:41;;;;;;;5.95;2.20;;;14.70;48.10;;;;;;4885051;29;20553;-67
2021/04/08 02:16:09;;;;;;;6.20;2.00;;;14.70;48.10;;;;;;4886457;29;20529;-67
2021/04/08 02:18:36;;;;;;;6.78;1.80;;;14.70;48.00;;;;;;4883081;29;20135;-67
2021/04/08 02:21:03;;;;;;;5.53;2.08;;;14.70;48.10;;;;;;4885714;29;20040;-67
2021/04/08 02:23:33;;;;;;;5.15;1.98;;;14.70;48.10;;;;;;4867080;29;20076;-67
2021/04/08 02:26:00;;;;;;;5.03;1.80;;;14.70;48.10;;;;;;4868737;29;20048;-67
2021/04/08 02:28:27;;;;;;;4.47;1.80;;;14.70;48.00;;;;;;4884812;29;20105;-67
2021/04/08 02:30:54;;;;;;;5.90;2.20;;;14.70;48.00;;;;;;4884384;29;20136;-67
2021/04/08 02:33:26;;;;;;;6.93;2.25;;;14.70;48.00;;;;;;4868083;29;20044;-67
2021/04/08 02:35:52;;;;;;;5.28;1.98;;;14.70;48.10;;;;;;4868453;29;20037;-67
2021/04/08 02:38:24;;;;;;;5.85;2.47;;;14.70;48.30;;;;;;4867778;29;20040;-71
2021/04/08 02:40:51;;;;;;;5.05;1.85;;;14.70;48.40;;;;;;4884039;29;20079;-68
2021/04/08 02:43:18;;;;;;;5.00;1.90;;;14.70;48.10;;;;;;4884603;29;20037;-68
2021/04/08 02:45:44;;;;;;;5.25;1.88;;;14.60;48.10;;;;;;4885056;29;20056;-68
2021/04/08 02:48:13;;;;;;;4.05;1.55;;;14.60;48.00;;;;;;4884182;29;20037;-69
2021/04/08 02:50:41;;;;;;;4.70;1.90;;;14.60;47.90;;;;;;4885062;29;20041;-69
2021/04/08 02:53:27;;;;;;;4.45;1.63;;;14.60;47.90;;;;;;4869622;29;20112;-69
2021/04/08 02:56:37;;;;;;;4.13;1.48;;;14.60;47.70;;;;;;4883457;29;20381;-68
2021/04/08 02:59:09;;;;;;;5.75;1.60;;;14.60;47.80;;;;;;4883722;29;20036;-68
2021/04/08 03:01:44;;;;;;;4.20;1.58;;;14.50;47.70;;;;;;4871896;29;20132;-68
2021/04/08 03:04:13;;;;;;;5.10;1.65;;;14.50;47.60;;;;;;4884473;29;20136;-67
2021/04/08 03:06:42;;;;;;;5.43;1.90;;;14.50;47.60;;;;;;4884195;29;20052;-67
2021/04/08 03:09:09;;;;;;;4.22;1.50;;;14.60;47.60;;;;;;4882832;29;20063;-68
2021/04/08 03:11:36;;;;;;;4.20;1.48;;;14.60;47.50;;;;;;4868676;29;20033;-68
2021/04/08 03:14:06;;;;;;;6.63;2.00;;;14.60;47.40;;;;;;4866550;29;20032;-68
2021/04/08 03:16:39;;;;;;;5.07;1.80;;;14.60;47.50;;;;;;4866994;29;20139;-68
2021/04/08 03:19:09;;;;;;;4.72;1.80;;;14.70;47.50;;;;;;4883860;29;20041;-68
2021/04/08 03:21:36;;;;;;;3.50;1.73;;;14.70;47.50;;;;;;4884458;29;20494;-70
2021/04/08 03:24:04;;;;;;;4.00;1.73;;;14.60;47.40;;;;;;4882343;29;20505;-68
2021/04/08 03:26:30;;;;;;;4.20;1.27;;;14.50;47.60;;;;;;4884386;29;20080;-68
2021/04/08 03:28:57;;;;;;;5.82;1.40;;;14.60;47.70;;;;;;4884877;29;20040;-68
2021/04/08 03:31:24;;;;;;;3.88;1.58;;;14.60;47.50;;;;;;4867137;29;20412;-68
2021/04/08 03:33:51;;;;;;;4.43;1.48;;;14.60;47.50;;;;;;4883740;29;20032;-67
2021/04/08 03:36:18;;;;;;;2.92;1.05;;;14.60;47.50;;;;;;4883737;29;20036;-68
2021/04/08 03:38:45;;;;;;;4.20;1.20;;;14.60;47.50;;;;;;4883381;29;20104;-68
2021/04/08 03:41:12;;;;;;;2.72;1.13;;;14.70;47.50;;;;;;4867331;29;20042;-68
2021/04/08 03:43:38;;;;;;;2.88;1.20;;;14.70;47.50;;;;;;4866360;29;20420;-67
2021/04/08 03:46:06;;;;;;;4.15;1.45;;;14.80;47.50;;;;;;4882979;29;20112;-69
2021/04/08 03:48:34;;;;;;;2.78;1.17;;;14.80;47.30;;;;;;4884331;29;20040;-68
2021/04/08 03:51:01;;;;;;;4.28;1.50;;;14.80;47.10;;;;;;4883115;29;20527;-68
2021/04/08 03:53:29;;;;;;;3.90;1.00;;;14.80;47.00;;;;;;4865324;29;20056;-67
2021/04/08 03:55:56;;;;;;;2.10;0.80;;;14.80;47.00;;;;;;4883343;29;20040;-68
2021/04/08 03:58:24;;;;;;;3.53;1.52;;;14.70;47.00;;;;;;4883546;29;20072;-68
2021/04/08 04:00:50;;;;;;;3.42;1.02;;;14.80;46.90;;;;;;4884475;29;20045;-68
2021/04/08 04:03:17;;;;;;;3.60;1.05;;;14.80;47.30;;;;;;4884694;29;20061;-67
2021/04/08 04:05:43;;;;;;;4.57;1.20;;;14.70;46.70;;;;;;4883999;29;20141;-67
2021/04/08 04:08:11;;;;;;;4.15;1.38;;;14.60;46.30;;;;;;4865518;29;20059;-67
2021/04/08 04:10:41;;;;;;;3.45;0.93;;;14.50;46.90;;;;;;4882703;29;20081;-67
2021/04/08 04:13:10;;;;;;;4.43;1.02;;;14.50;47.30;;;;;;4883415;29;20889;-67
2021/04/08 04:15:38;;;;;;;2.63;1.00;;;14.50;47.80;;;;;;4883842;29;20365;-67
2021/04/08 04:18:05;;;;;;;4.10;1.20;;;14.40;47.30;;;;;;4865852;29;20053;-67
2021/04/08 04:20:32;;;;;;;3.67;1.48;;;14.50;47.30;;;;;;4883422;29;20060;-67
2021/04/08 04:22:58;;;;;;;3.10;1.20;;;14.50;47.30;;;;;;4883355;29;20765;-67
2021/04/08 04:25:25;;;;;;;2.70;1.00;;;14.50;47.30;;;;;;4882532;29;20072;-67
2021/04/08 04:27:51;;;;;;;3.10;1.52;;;14.60;47.30;;;;;;4865710;29;20116;-67
2021/04/08 04:30:19;;;;;;;4.65;1.05;;;14.50;47.10;;;;;;4850750;29;20036;-67
2021/04/08 04:32:45;;;;;;;5.22;1.20;;;14.60;47.00;;;;;;4882859;29;20052;-67
2021/04/08 04:35:11;;;;;;;4.93;1.58;;;14.60;46.80;;;;;;4866093;29;20041;-67
2021/04/08 04:37:37;;;;;;;4.65;0.90;;;14.60;46.60;;;;;;4881552;29;20048;-67
2021/04/08 04:40:06;;;;;;;4.72;0.90;;;14.60;46.40;;;;;;4883335;29;20041;-67
2021/04/08 04:42:34;;;;;;;6.55;1.50;;;14.50;46.90;;;;;;4867095;29;20095;-67
2021/04/08 04:45:00;;;;;;;3.20;1.00;;;14.40;46.80;;;;;;4882464;29;20397;-67
2021/04/08 04:47:26;;;;;;;1.98;0.70;;;14.40;47.10;;;;;;4882395;29;20037;-67
2021/04/08 04:49:51;;;;;;;2.97;1.00;;;14.40;47.10;;;;;;4882483;29;20048;-67
2021/04/08 04:52:18;;;;;;;3.28;1.00;;;14.50;47.00;;;;;;4882784;29;20105;-67
2021/04/08 04:54:44;;;;;;;3.88;1.10;;;14.50;47.00;;;;;;4883087;29;20045;-67
2021/04/08 04:57:09;;;;;;;5.38;1.05;;;14.40;46.90;;;;;;4866697;29;20041;-66
2021/04/08 04:59:35;;;;;;;3.00;1.00;;;14.40;47.00;;;;;;4866714;29;20044;-66
2021/04/08 05:02:01;;;;;;;2.40;0.77;;;14.40;47.10;;;;;;4885495;29;20048;-66
2021/04/08 05:04:27;;;;;;;3.03;1.00;;;14.40;47.40;;;;;;4889209;29;20081;-67
2021/04/08 05:06:52;;;;;;;3.75;0.98;;;14.30;47.40;;;;;;4888504;29;20061;-67
2021/04/08 05:09:18;;;;;;;3.42;0.98;;;14.30;47.60;;;;;;4888103;29;20041;-68
2021/04/08 05:11:45;;;;;;;4.80;1.23;;;14.20;47.60;;;;;;4885841;29;20044;-68
2021/04/08 05:14:11;;;;;;;2.10;1.02;;;14.20;47.50;;;;;;4887024;29;20033;-68
2021/04/08 05:16:38;;;;;;;4.40;0.90;;;14.20;47.50;;;;;;4886743;29;20052;-68
2021/04/08 05:19:03;;;;;;;3.72;1.27;;;14.30;47.40;;;;;;4887036;29;20033;-66
2021/04/08 05:21:33;;;;;;;5.60;1.30;;;14.30;46.90;;;;;;4885576;29;20077;-68
2021/04/08 05:23:59;;;;;;;5.80;1.40;;;14.10;47.40;;;;;;4885357;29;20048;-68
2021/04/08 05:26:25;;;;;;;3.67;1.20;;;13.90;47.70;;;;;;4885672;29;20068;-68
2021/04/08 05:28:51;;;;;;;4.25;1.35;;;13.80;47.90;;;;;;4885539;29;20409;-68
2021/04/08 05:31:17;;;;;;;2.50;0.80;;;13.80;47.40;;;;;;4884692;29;20191;-68
2021/04/08 05:33:42;;;;;;;3.53;1.08;;;13.60;47.20;;;;;;4885529;29;20051;-67
2021/04/08 05:36:08;;;;;;;4.55;1.05;;;13.60;47.60;;;;;;4870493;29;20044;-67
2021/04/08 05:38:34;;;;;;;4.72;0.90;;;13.60;47.50;;;;;;4868054;29;20478;-68
2021/04/08 05:41:00;;;;;;;2.63;0.80;;;13.70;47.70;;;;;;4885001;29;20100;-67
2021/04/08 05:43:25;;;;;;;4.88;1.30;;;13.80;47.70;;;;;;4885883;29;20043;-68
2021/04/08 05:45:51;;;;;;;4.25;1.10;;;13.90;47.60;;;;;;4885277;29;20496;-68
2021/04/08 05:48:17;;;;;;;6.03;1.00;;;13.90;47.50;;;;;;4884515;29;20041;-68
2021/04/08 05:50:43;;;;;;;6.75;1.38;;;13.90;47.50;;;;;;4868671;29;20033;-70
2021/04/08 05:53:09;;;;;;;5.47;1.20;;;13.90;48.10;;;;;;4886182;29;20036;-67
2021/04/08 05:55:35;;;;;;;6.28;1.70;;;14.10;49.10;;;;;;4887014;29;20099;-68
2021/04/08 05:58:00;;;;;;;3.65;1.23;;;14.20;49.90;;;;;;4889620;29;20037;-68
2021/04/08 06:00:26;;;;;;;5.40;1.38;;;14.30;50.10;;;;;;4884755;29;20045;-67
2021/04/08 06:02:54;;;;;;;5.13;1.30;;;14.50;50.80;;;;;;4887420;29;20036;-69
2021/04/08 06:05:20;;;;;;;5.68;1.10;;;14.60;51.00;;;;;;4886226;29;20036;-67
2021/04/08 06:07:45;;;;;;;4.50;1.23;;;14.70;51.00;;;;;;4885113;29;20063;-68
2021/04/08 06:10:15;;;;;;;3.92;1.25;;;14.90;50.90;;;;;;4868180;29;20041;-68
2021/04/08 06:12:44;;;;;;;5.85;1.70;;;15.00;50.40;;;;;;4884261;29;20032;-70
2021/04/08 06:15:11;;;;;;;3.85;1.40;;;15.20;50.40;;;;;;4867766;29;20037;-68
2021/04/08 06:17:37;;;;;;;6.88;1.33;;;15.30;50.30;;;;;;4885388;29;20048;-68
2021/04/08 06:20:05;;;;;;;3.75;1.48;;;15.40;50.80;;;;;;4884489;29;20402;-64
2021/04/08 06:22:32;;;;;;;3.28;1.35;;;15.30;51.00;;;;;;4885355;29;20505;-65
2021/04/08 06:24:58;;;;;;;4.38;1.10;;;15.40;51.40;;;;;;4884988;29;20037;-64
2021/04/08 06:27:25;;;;;;;4.15;1.30;;;15.40;51.50;;;;;;4885452;29;20049;-64
2021/04/08 06:29:51;;;;;;;4.88;1.33;;;15.40;51.50;;;;;;4884471;29;20082;-65
2021/04/08 06:32:17;;;;;;;2.38;1.05;;;15.40;51.20;;;;;;4867863;29;20040;-65
2021/04/08 06:34:44;;;;;;;4.50;2.20;;;15.40;50.70;;;;;;4884259;29;20123;-65
2021/04/08 06:37:10;;;;;;;4.38;1.33;;;15.40;50.50;;;;;;4884182;29;20609;-65
2021/04/08 06:39:36;;;;;;;3.10;1.10;;;15.10;50.60;;;;;;4883314;29;20139;-65
2021/04/08 06:42:02;;;;;;;3.50;0.95;;;14.90;51.60;;;;;;4885133;29;20040;-65
2021/04/08 06:44:31;;;;;;;4.00;1.00;;;14.80;49.30;;;;;;4870066;29;20044;-65
2021/04/08 06:47:04;;;;;;;2.72;0.93;;;14.90;49.70;;;;;;4884102;29;20180;-65
2021/04/08 06:49:43;;;;;;;4.85;1.30;;;14.90;47.10;;;;;;4883665;29;20041;-65
2021/04/08 06:52:11;;;;;;;5.38;1.55;;;14.90;49.50;;;;;;4884772;29;20037;-65
2021/04/08 06:54:38;;;;;;;5.75;1.67;;;14.90;49.90;;;;;;4867594;29;20108;-64
2021/04/08 06:57:05;;;;;;;3.00;0.98;;;14.90;46.40;;;;;;4883344;29;20044;-64
2021/04/08 06:59:34;;;;;;;5.20;1.20;;;14.10;45.20;;;;;;4883577;29;20565;-64
2021/04/08 07:02:00;;;;;;;4.32;1.17;;;13.20;45.60;;;;;;4881968;29;20049;-64
2021/04/08 07:04:26;;;;;;;2.45;0.65;;;12.40;47.10;;;;;;4865684;29;20415;-64
2021/04/08 07:06:52;;;;;;;5.03;1.50;;;11.80;48.30;;;;;;4883217;29;20073;-64
2021/04/08 07:09:18;;;;;;;4.38;1.00;;;11.30;49.20;;;;;;4884706;29;20068;-64
2021/04/08 07:11:45;;;;;;;4.57;1.20;;;10.70;49.90;;;;;;4884792;29;20040;-63
2021/04/08 07:14:11;;;;;;;4.88;0.90;;;10.30;51.30;;;;;;4883354;29;20042;-62
2021/04/08 07:16:38;;;;;;;5.95;1.17;;;10.00;52.20;;;;;;4883422;29;20049;-64
2021/04/08 07:19:05;;;;;;;6.10;1.20;;;9.80;52.70;;;;;;4884315;29;20036;-65
2021/04/08 07:21:33;;;;;;;3.25;1.30;;;9.60;53.50;;;;;;4867705;29;20036;-64
2021/04/08 07:24:16;;;;;;;5.22;1.27;;;9.50;54.20;;;;;;4883454;29;20036;-63
2021/04/08 07:27:07;;;;;;;4.32;1.17;;;9.40;54.40;;;;;;4884582;29;20048;-65
2021/04/08 07:29:39;;;;;;;6.22;1.90;;;9.30;54.70;;;;;;4884184;29;20140;-64
2021/04/08 07:32:20;;;;;;;3.60;1.00;;;9.10;55.00;;;;;;4883473;29;20383;-64
2021/04/08 07:34:47;;;;;;;5.18;1.20;;;9.00;55.40;;;;;;4884229;29;20037;-64
2021/04/08 07:37:14;;;;;;;4.78;1.13;;;8.80;55.80;;;;;;4883605;29;20044;-65
2021/04/08 07:39:44;;;;;;;4.72;0.98;;;8.60;56.20;;;;;;4882681;29;20043;-63
2021/04/08 07:42:13;;;;;;;6.57;1.15;;;8.60;56.70;;;;;;4868067;29;20490;-64
2021/04/08 07:45:03;;;;;;;13.60;1.40;;;8.50;57.00;;;;;;4883809;29;20049;-68
2021/04/08 07:47:40;;;;;;;7.25;2.08;;;8.50;56.70;;;;;;4843602;29;20052;-65
2021/04/08 07:50:12;;;;;;;7.60;1.33;;;8.40;57.10;;;;;;4866574;29;20048;-65
2021/04/08 07:52:49;;;;;;;5.22;1.33;;;8.30;57.30;;;;;;4883994;29;20044;-62
2021/04/08 07:55:44;;;;;;;8.48;1.65;;;8.20;57.40;;;;;;4866375;29;20131;-63
2021/04/08 07:58:15;;;;;;;8.75;1.33;;;8.20;58.00;;;;;;4871187;29;20494;-65
2021/04/08 08:00:51;;;;;;;6.03;1.55;;;8.10;58.20;;;;;;4883734;29;20044;-65
2021/04/08 08:03:23;;;;;;;8.68;1.50;;;8.00;58.20;;;;;;4883530;29;20040;-65
2021/04/08 08:05:51;;;;;;;4.65;1.17;;;7.90;58.50;;;;;;4882817;29;20115;-66
2021/04/08 08:08:22;;;;;;;4.65;1.38;;;7.80;58.80;;;;;;4864011;29;20057;-65
2021/04/08 08:11:03;;;;;;;5.72;1.05;;;7.80;59.00;;;;;;4864496;29;20037;-63
2021/04/08 08:13:39;;;;;;;6.65;2.30;;;7.70;59.30;;;;;;4865083;29;20397;-63
2021/04/08 08:16:06;;;;;;;5.10;1.17;;;7.70;59.60;;;;;;4864711;29;20041;-63
2021/04/08 08:18:41;;;;;;;7.28;1.30;;;7.70;59.70;;;;;;4864946;29;20506;-67
2021/04/08 08:21:17;;;;;;;5.80;1.20;;;7.70;59.90;;;;;;4864578;29;20045;-65
2021/04/08 08:23:50;;;;;;;6.80;1.17;;;7.60;59.90;;;;;;4863527;29;20549;-65
2021/04/08 08:26:40;;;;;;;8.52;1.70;;;7.60;60.00;;;;;;4862336;29;20048;-65
2021/04/08 08:29:06;;;;;;;5.07;1.27;;;7.60;60.30;;;;;;4863902;29;20040;-66
2021/04/08 08:31:36;;;;;;;8.73;2.20;;;7.50;60.40;;;;;;4860605;29;20045;-66
2021/04/08 08:34:07;;;;;;;6.05;1.45;;;7.50;60.50;;;;;;4865159;29;20462;-64
2021/04/08 08:36:33;;;;;;;7.65;1.55;;;7.50;60.40;;;;;;4863486;29;20524;-66
2021/04/08 08:39:04;;;;;;;5.90;1.15;;;7.40;60.30;;;;;;4867336;29;20497;-64
2021/04/08 08:41:30;;;;;;;7.47;1.48;;;7.40;60.80;;;;;;4852022;29;20092;-64
2021/04/08 08:43:57;;;;;;;4.93;1.70;;;7.30;60.40;;;;;;4869636;29;20048;-62
2021/04/08 08:46:26;;;;;;;4.90;1.10;;;7.30;60.80;;;;;;4866779;29;20037;-65
2021/04/08 08:48:53;;;;;;;6.38;1.38;;;7.40;61.00;;;;;;4867507;29;20045;-62
2021/04/08 08:51:21;;;;;;;4.15;1.60;;;7.40;60.80;;;;;;4866666;29;20120;-61
2021/04/08 08:53:47;;;;;;;9.98;1.55;;;7.50;61.10;;;;;;4867678;29;20045;-62
2021/04/08 08:56:14;;;;;;;9.60;1.60;;;7.60;63.60;;;;;;4866728;29;20041;-63
2021/04/08 08:58:41;;;;;;;11.55;2.83;;;8.20;69.00;;;;;;4865787;29;20485;-63
2021/04/08 09:01:07;;;;;;;5.53;1.20;;;9.20;69.00;;;;;;4866784;29;20045;-62
2021/04/08 09:03:33;;;;;;;6.20;1.08;;;9.90;65.20;;;;;;4866428;29;20404;-62
2021/04/08 09:06:05;;;;;;;15.80;1.67;;;10.40;62.60;;;;;;4867222;29;20037;-62
2021/04/08 09:08:39;;;;;;;7.65;1.23;;;10.90;62.90;;;;;;4867594;29;20521;-62
2021/04/08 09:11:06;;;;;;;4.13;1.13;;;11.30;59.50;;;;;;4868188;29;20119;-60
2021/04/08 09:13:32;;;;;;;3.17;0.80;;;11.70;58.20;;;;;;4867316;29;20064;-61
2021/04/08 09:15:59;;;;;;;4.78;1.65;;;12.10;57.70;;;;;;4868002;29;20482;-61
2021/04/08 09:18:25;;;;;;;5.07;0.95;;;12.20;55.40;;;;;;4866643;29;20488;-62
2021/04/08 09:20:53;;;;;;;8.63;1.63;;;12.00;55.90;;;;;;4867794;29;20117;-63
2021/04/08 09:23:21;;;;;;;5.15;1.20;;;12.00;55.50;;;;;;4867650;29;20516;-63
2021/04/08 09:25:54;;;;;;;2.90;0.73;;;11.90;54.20;;;;;;4866438;29;20052;-62
2021/04/08 09:28:20;;;;;;;4.23;0.93;;;12.10;55.10;;;;;;4864900;29;20059;-62
2021/04/08 09:33:44;;;;;;;7.32;1.33;;;12.10;54.00;;;;;;4866799;29;20045;-62
2021/04/08 09:36:23;;;;;;;5.63;0.75;;;12.20;53.20;;;;;;4867024;29;20053;-62
2021/04/08 09:38:51;;;;;;;5.30;0.93;;;12.10;51.80;;;;;;4868193;29;20092;-63
2021/04/08 09:41:17;;;;;;;17.70;2.63;;;12.10;54.10;;;;;;4849542;29;20063;-63
2021/04/08 09:43:45;;;;;;;9.52;1.63;;;12.10;54.40;;;;;;4880448;29;20093;-63
2021/04/08 09:46:13;;;;;;;4.95;1.50;;;12.20;53.20;;;;;;4864266;29;20517;-63
2021/04/08 09:48:50;;;;;;;6.40;1.25;;;12.30;53.00;;;;;;4866094;29;20045;-63
2021/04/08 09:51:29;;;;;;;4.00;0.93;;;12.40;51.50;;;;;;4867191;29;20037;-62
2021/04/08 09:53:56;;;;;;;37.83;7.38;;;12.50;50.40;;;;;;4873020;29;20037;-61
2021/04/08 09:56:44;;;;;;;5.07;1.23;;;12.50;50.10;;;;;;4866929;29;20041;-63
2021/04/08 09:59:10;;;;;;;5.07;1.50;;;12.40;50.90;;;;;;4867938;29;20041;-63
2021/04/08 10:01:36;;;;;;;5.97;1.77;;;12.40;51.40;;;;;;4865475;29;20052;-62
2021/04/08 10:04:12;;;;;;;10.52;1.55;;;12.30;50.60;;;;;;4865691;29;20506;-62
2021/04/08 10:06:39;;;;;;;6.10;1.50;;;12.20;50.70;;;;;;4869643;29;20064;-61
2021/04/08 10:09:07;;;;;;;5.93;1.67;;;12.20;51.20;;;;;;4868267;29;20096;-63
2021/04/08 10:11:33;;;;;;;5.93;1.38;;;12.30;50.70;;;;;;4883732;29;20043;-64
2021/04/08 10:13:59;;;;;;;6.30;2.22;;;12.30;49.50;;;;;;4884751;29;20045;-64
2021/04/08 10:16:25;;;;;;;3.90;1.55;;;12.30;48.50;;;;;;4886546;29;20116;-64
2021/04/08 10:19:10;;;;;;;5.32;1.73;;;12.30;48.50;;;;;;4871188;29;20089;-64
2021/04/08 10:21:40;;;;;;;3.22;1.35;;;12.30;47.30;;;;;;4867028;29;20096;-62
2021/04/08 10:24:22;;;;;;;6.50;1.47;;;12.30;48.20;;;;;;4883357;29;20058;-62
2021/04/08 10:27:24;;;;;;;6.72;1.73;;;12.30;48.00;;;;;;4850650;29;20056;-62
2021/04/08 10:30:18;;;;;;;4.88;1.67;;;12.20;47.80;;;;;;4857512;29;20636;-62
2021/04/08 10:32:44;;;;;;;15.18;2.95;;;12.10;48.90;;;;;;4868992;29;20716;-62
2021/04/08 10:35:29;;;;;;;9.93;3.63;;;12.10;49.50;;;;;;4870210;29;20418;-62
2021/04/08 10:38:05;;;;;;;9.20;2.17;;;12.10;50.40;;;;;;4884793;29;20064;-62
2021/04/08 10:40:32;;;;;;;9.77;2.08;;;12.30;51.00;;;;;;4855346;29;20044;-61
2021/04/08 10:43:08;;;;;;;9.98;2.25;;;12.30;50.80;;;;;;4884201;29;20052;-61
2021/04/08 10:45:34;;;;;;;4.47;1.67;;;12.60;51.80;;;;;;4867855;29;20482;-61
2021/04/08 10:48:01;;;;;;;5.15;1.60;;;12.90;49.60;;;;;;4883134;29;20052;-62
2021/04/08 10:50:27;;;;;;;4.57;1.60;;;13.10;48.80;;;;;;4884872;29;20088;-62
2021/04/08 10:52:53;;;;;;;7.72;1.60;;;13.10;48.90;;;;;;4886153;29;20037;-62
2021/04/08 10:55:25;;;;;;;8.77;1.95;;;13.10;48.80;;;;;;4882637;29;20083;-62
2021/04/08 10:57:51;;;;;;;8.15;2.65;;;13.00;48.80;;;;;;4881912;29;20050;-62
2021/04/08 11:00:17;;;;;;;5.35;1.58;;;12.90;49.00;;;;;;4881391;29;20044;-62
2021/04/08 11:02:44;;;;;;;6.43;1.60;;;13.00;48.40;;;;;;4880472;29;20519;-62
2021/04/08 11:05:22;;;;;;;4.63;1.58;;;13.10;49.40;;;;;;4880802;29;20127;-62
2021/04/08 11:07:52;;;;;;;4.43;1.58;;;13.00;49.90;;;;;;4880641;29;20305;-62
2021/04/08 11:10:20;;;;;;;6.50;1.33;;;13.00;49.20;;;;;;4882849;29;20045;-62
2021/04/08 11:12:51;;;;;;;6.35;1.58;;;13.00;49.30;;;;;;4883230;29;20059;-62
2021/04/08 11:15:21;;;;;;;9.55;1.75;;;13.10;50.60;;;;;;4883603;29;20033;-62
2021/04/08 11:17:49;;;;;;;3.83;1.70;;;13.40;50.60;;;;;;4882111;29;20041;-62
2021/04/08 11:20:17;;;;;;;4.70;1.88;;;13.40;48.80;;;;;;4882361;29;20032;-62
2021/04/08 11:22:47;;;;;;;7.68;2.75;;;13.50;46.80;;;;;;4882259;29;20096;-61
2021/04/08 11:25:15;;;;;;;4.70;1.75;;;13.40;45.70;;;;;;4884094;29;20075;-61
2021/04/08 11:27:45;;;;;;;11.43;3.08;;;13.30;44.80;;;;;;4882730;29;20119;-61
2021/04/08 11:30:21;;;;;;;4.03;1.40;;;13.30;44.50;;;;;;4866411;29;20037;-63
2021/04/08 11:32:51;;;;;;;12.35;2.17;;;13.20;43.20;;;;;;4885363;29;20071;-63
2021/04/08 11:35:35;;;;;;;6.57;2.22;;;13.00;43.00;;;;;;4882780;29;20099;-63
2021/04/08 11:38:07;;;;;;;3.75;1.45;;;12.70;42.80;;;;;;4883457;29;20508;-63
2021/04/08 11:40:33;;;;;;;3.53;1.20;;;12.50;44.50;;;;;;4883425;29;20044;-63
2021/04/08 11:42:59;;;;;;;8.43;2.60;;;12.50;46.40;;;;;;4884483;29;20044;-63
2021/04/08 11:45:30;;;;;;;3.35;1.20;;;12.50;46.10;;;;;;4882689;29;20033;-63
2021/04/08 11:47:58;;;;;;;4.82;1.90;;;12.50;46.40;;;;;;4883548;29;20036;-63
2021/04/08 11:50:37;;;;;;;4.57;2.33;;;12.50;47.10;;;;;;4884776;29;20085;-63
2021/04/08 11:53:07;;;;;;;4.70;1.70;;;12.50;46.20;;;;;;4882490;29;20143;-63
2021/04/08 11:55:48;;;;;;;4.32;1.85;;;12.50;46.40;;;;;;4883494;29;20033;-63
2021/04/08 11:58:43;;;;;;;8.50;3.10;;;12.50;43.80;;;;;;4851310;29;20068;-63
2021/04/08 12:01:14;;;;;;;15.70;2.75;;;12.30;42.90;;;;;;4859662;29;20151;-63
2021/04/08 12:03:50;;;;;;;5.95;2.10;;;12.10;43.40;;;;;;4883100;29;20036;-63
2021/04/08 12:06:21;;;;;;;5.38;2.80;;;12.00;43.40;;;;;;4883432;29;20048;-63
2021/04/08 12:08:51;;;;;;;5.47;2.55;;;12.00;43.30;;;;;;4883322;29;20878;-63
2021/04/08 12:11:19;;;;;;;5.15;2.33;;;11.90;43.50;;;;;;4882513;29;20646;-62
2021/04/08 12:14:03;;;;;;;5.80;2.65;;;11.90;43.60;;;;;;4883407;29;20036;-62
2021/04/08 12:16:29;;;;;;;5.05;2.85;;;11.80;42.50;;;;;;4883774;29;20075;-62
2021/04/08 12:18:56;;;;;;;6.53;2.58;;;11.60;43.70;;;;;;4883485;29;20069;-62
2021/04/08 12:21:27;;;;;;;5.20;2.92;;;11.50;45.20;;;;;;4882645;29;20042;-63
2021/04/08 12:23:54;;;;;;;4.68;2.65;;;11.50;44.90;;;;;;4883941;29;20398;-63
2021/04/08 12:26:40;;;;;;;4.72;3.25;;;11.60;44.50;;;;;;4882661;29;20049;-62
2021/04/08 12:29:07;;;;;;;4.80;2.80;;;11.70;44.50;;;;;;4883039;29;20148;-61
2021/04/08 12:31:33;;;;;;;6.50;3.30;;;11.80;44.30;;;;;;4865153;29;20029;-61
2021/04/08 12:33:59;;;;;;;6.72;3.47;;;11.80;44.10;;;;;;4885101;29;20401;-63
2021/04/08 12:36:25;;;;;;;5.93;3.42;;;11.70;43.10;;;;;;4885329;29;20053;-61
2021/04/08 12:38:51;;;;;;;5.32;2.75;;;11.60;44.10;;;;;;4885337;29;20043;-61
2021/04/08 12:41:18;;;;;;;6.70;3.58;;;11.60;44.80;;;;;;4867932;29;20048;-61
2021/04/08 12:43:43;;;;;;;9.60;5.88;;;11.60;44.60;;;;;;4882425;29;20040;-61
2021/04/08 12:46:10;;;;;;;7.85;4.72;;;11.50;44.00;;;;;;4884927;29;20048;-61
2021/04/08 12:48:36;;;;;;;6.88;3.45;;;11.40;43.80;;;;;;4883113;29;20033;-61
2021/04/08 12:51:02;;;;;;;6.45;4.32;;;11.20;44.70;;;;;;4883377;29;22339;-61
2021/04/08 12:53:29;;;;;;;8.10;4.22;;;11.20;45.00;;;;;;4881927;29;20085;-61
2021/04/08 12:55:55;;;;;;;9.00;3.72;;;11.30;45.40;;;;;;4880954;29;20048;-61
2021/04/08 12:58:23;;;;;;;13.10;7.80;;;11.50;45.60;;;;;;4883527;29;20073;-62
2021/04/08 13:00:49;;;;;;;29.88;14.55;;;11.80;45.40;;;;;;4864088;29;20092;-61
2021/04/08 13:03:15;;;;;;;14.10;7.65;;;12.20;46.10;;;;;;4865754;29;20048;-62